createdAt,value
2023-03-22T00:00:15.454Z,17.23
2023-03-22T00:02:42.607Z,18.10
2023-03-22T00:05:10.111Z,18.40
2023-03-22T00:07:37.765Z,17.53
2023-03-22T00:10:05.786Z,16.47
2023-03-22T00:12:32.929Z,18.17
2023-03-22T00:15:00.161Z,17.67
2023-03-22T00:17:27.313Z,18.23
2023-03-22T00:19:54.679Z,19.07
2023-03-22T00:22:22.140Z,18.30
2023-03-22T00:24:49.249Z,18.17
2023-03-22T00:27:16.614Z,19.43
2023-03-22T00:29:43.713Z,18.77
2023-03-22T00:32:11.278Z,20.00
2023-03-22T00:34:38.407Z,19.60
2023-03-22T00:37:05.638Z,19.70
2023-03-22T00:39:32.925Z,21.57
2023-03-22T00:42:00.226Z,21.43
2023-03-22T00:44:27.399Z,21.23
2023-03-22T00:46:54.587Z,23.37
2023-03-22T00:49:21.895Z,21.67
2023-03-22T00:51:49.026Z,21.50
2023-03-22T00:54:17.340Z,20.33
2023-03-22T00:56:49.851Z,18.47
2023-03-22T00:59:17.453Z,17.93
2023-03-22T01:01:44.640Z,16.03
2023-03-22T01:04:17.924Z,16.47
2023-03-22T01:06:47.130Z,14.00
2023-03-22T01:09:15.105Z,12.53
2023-03-22T01:11:43.396Z,11.80
2023-03-22T01:14:13.773Z,10.83
2023-03-22T01:16:41.124Z,10.73
2023-03-22T01:19:08.780Z,10.43
2023-03-22T01:21:36.061Z,9.37
2023-03-22T01:24:03.231Z,9.10
2023-03-22T01:26:30.488Z,12.07
2023-03-22T01:28:57.680Z,11.63
2023-03-22T01:31:24.873Z,14.97
2023-03-22T01:33:51.995Z,15.90
2023-03-22T01:36:19.125Z,16.93
2023-03-22T01:38:46.256Z,21.30
2023-03-22T01:41:13.524Z,26.40
2023-03-22T01:43:40.633Z,23.63
2023-03-22T01:46:07.875Z,22.10
2023-03-22T01:48:38.062Z,23.23
2023-03-22T01:51:08.771Z,24.33
2023-03-22T01:53:37.944Z,24.43
2023-03-22T01:56:05.318Z,35.77
2023-03-22T01:58:33.819Z,36.10
2023-03-22T02:01:01.159Z,28.73
2023-03-22T02:03:37.549Z,25.03
2023-03-22T02:06:04.690Z,30.60
2023-03-22T02:08:33.041Z,33.20
2023-03-22T02:11:01.033Z,26.23
2023-03-22T02:13:38.827Z,30.93
2023-03-22T02:16:10.544Z,28.03
2023-03-22T02:18:49.974Z,34.40
2023-03-22T02:21:41.609Z,30.93
2023-03-22T02:24:27.532Z,27.13
2023-03-22T02:27:06.407Z,27.37
2023-03-22T02:30:02.643Z,26.80
2023-03-22T02:32:32.566Z,32.20
2023-03-22T02:35:21.956Z,34.13
2023-03-22T02:38:08.060Z,28.37
2023-03-22T02:40:49.778Z,35.03
2023-03-22T02:43:23.558Z,30.90
2023-03-22T02:45:53.524Z,25.07
2023-03-22T02:48:33.314Z,25.47
2023-03-22T02:51:02.838Z,27.33
2023-03-22T02:53:40.797Z,28.47
2023-03-22T02:56:22.575Z,23.33
2023-03-22T02:58:53.233Z,23.73
2023-03-22T03:01:25.977Z,27.73
2023-03-22T03:03:55.370Z,23.30
2023-03-22T03:06:25.590Z,21.67
2023-03-22T03:08:53.834Z,23.10
2023-03-22T03:11:21.508Z,22.00
2023-03-22T03:13:49.227Z,20.97
2023-03-22T03:16:17.517Z,22.67
2023-03-22T03:18:48.395Z,22.70
2023-03-22T03:21:35.059Z,21.83
2023-03-22T03:24:21.223Z,22.00
2023-03-22T03:26:48.401Z,22.50
2023-03-22T03:29:35.776Z,21.37
2023-03-22T03:32:25.555Z,20.00
2023-03-22T03:34:59.414Z,21.23
2023-03-22T03:37:41.357Z,22.00
2023-03-22T03:40:13.807Z,20.87
2023-03-22T03:42:44.220Z,22.37
2023-03-22T03:45:11.667Z,20.77
2023-03-22T03:47:38.835Z,19.87
2023-03-22T03:50:06.464Z,21.70
2023-03-22T03:52:33.579Z,21.87
2023-03-22T03:55:00.729Z,20.47
2023-03-22T03:57:27.847Z,20.83
2023-03-22T03:59:55.240Z,19.83
2023-03-22T04:02:22.426Z,20.27
2023-03-22T04:04:49.707Z,20.40
2023-03-22T04:07:16.861Z,20.40
2023-03-22T04:09:43.992Z,19.50
2023-03-22T04:12:11.184Z,20.37
2023-03-22T04:14:38.359Z,19.80
2023-03-22T04:17:05.667Z,19.77
2023-03-22T04:19:33.034Z,19.00
2023-03-22T04:22:00.360Z,19.90
2023-03-22T04:24:27.591Z,18.90
2023-03-22T04:26:55.099Z,18.23
2023-03-22T04:29:22.976Z,18.80
2023-03-22T04:31:50.261Z,18.13
2023-03-22T04:34:17.552Z,19.33
2023-03-22T04:36:45.230Z,19.47
2023-03-22T04:39:12.730Z,19.43
2023-03-22T04:41:39.925Z,18.37
2023-03-22T04:44:07.742Z,19.20
2023-03-22T04:46:36.130Z,19.10
2023-03-22T04:49:03.837Z,18.60
2023-03-22T04:51:32.062Z,19.00
2023-03-22T04:54:00.421Z,18.00
2023-03-22T04:56:27.549Z,18.30
2023-03-22T04:58:54.713Z,19.60
2023-03-22T05:01:21.949Z,18.90
2023-03-22T05:03:49.154Z,18.87
2023-03-22T05:06:16.433Z,18.60
2023-03-22T05:08:44.122Z,20.40
2023-03-22T05:11:16.364Z,20.27
2023-03-22T05:13:43.819Z,22.57
2023-03-22T05:16:11.407Z,22.10
2023-03-22T05:18:42.402Z,23.73
2023-03-22T05:21:16.531Z,24.03
2023-03-22T05:23:44.469Z,18.67
2023-03-22T05:26:16.183Z,19.90
2023-03-22T05:28:44.693Z,20.53
2023-03-22T05:31:14.509Z,20.97
2023-03-22T05:33:41.844Z,20.03
2023-03-22T05:36:09.429Z,22.70
2023-03-22T05:38:36.549Z,24.63
2023-03-22T05:41:03.983Z,16.80
2023-03-22T05:43:32.752Z,24.97
2023-03-22T05:45:59.917Z,25.43
2023-03-22T05:48:27.065Z,20.10
2023-03-22T05:50:54.173Z,26.53
2023-03-22T05:53:21.325Z,23.10
2023-03-22T05:55:48.450Z,26.27
2023-03-22T05:58:18.970Z,19.60
2023-03-22T06:00:49.933Z,17.97
2023-03-22T06:03:18.273Z,23.87
2023-03-22T06:05:46.567Z,21.73
2023-03-22T06:08:13.731Z,18.10
2023-03-22T06:10:41.114Z,18.67
2023-03-22T06:13:08.577Z,17.73
2023-03-22T06:15:35.878Z,21.43
2023-03-22T06:18:03.164Z,18.77
2023-03-22T06:20:30.330Z,19.00
2023-03-22T06:22:57.519Z,17.90
2023-03-22T06:25:24.809Z,17.90
2023-03-22T06:27:52.001Z,18.03
2023-03-22T06:30:20.492Z,17.07
2023-03-22T06:32:47.594Z,12.77
2023-03-22T06:35:15.537Z,18.20
2023-03-22T06:37:42.769Z,17.73
2023-03-22T06:40:10.384Z,18.53
2023-03-22T06:42:37.658Z,17.00
2023-03-22T06:45:04.972Z,18.37
2023-03-22T06:47:32.136Z,18.53
2023-03-22T06:49:59.330Z,17.63
2023-03-22T06:52:26.512Z,18.23
2023-03-22T06:54:53.643Z,19.50
2023-03-22T06:57:21.057Z,20.10
2023-03-22T06:59:48.299Z,19.80
2023-03-22T07:02:15.451Z,19.63
2023-03-22T07:04:42.691Z,19.40
2023-03-22T07:07:09.915Z,20.13
2023-03-22T07:09:37.113Z,19.53
2023-03-22T07:12:05.254Z,19.63
2023-03-22T07:14:32.604Z,20.00
2023-03-22T07:16:59.950Z,22.13
2023-03-22T07:19:27.673Z,20.57
2023-03-22T07:21:54.849Z,22.20
2023-03-22T07:24:22.081Z,18.80
2023-03-22T07:26:49.191Z,20.93
2023-03-22T07:29:16.340Z,21.83
2023-03-22T07:31:43.758Z,23.67
2023-03-22T07:34:11.089Z,21.57
2023-03-22T07:36:38.283Z,23.13
2023-03-22T07:39:05.965Z,23.83
2023-03-22T07:41:33.223Z,23.40
2023-03-22T07:44:15.216Z,24.47
2023-03-22T07:46:44.867Z,25.80
2023-03-22T07:49:12.000Z,26.23
2023-03-22T07:51:39.406Z,24.17
2023-03-22T07:54:07.843Z,26.50
2023-03-22T07:56:35.111Z,27.60
2023-03-22T07:59:02.408Z,26.90
2023-03-22T08:01:29.682Z,27.60
2023-03-22T08:03:56.841Z,29.03
2023-03-22T08:06:23.968Z,28.50
2023-03-22T08:08:51.393Z,28.97
2023-03-22T08:11:18.505Z,27.80
2023-03-22T08:13:45.966Z,24.43
2023-03-22T08:16:13.131Z,26.90
2023-03-22T08:18:40.629Z,24.27
2023-03-22T08:21:07.962Z,28.03
2023-03-22T08:23:41.838Z,28.13
2023-03-22T08:26:09.950Z,28.17
2023-03-22T08:28:37.590Z,28.83
2023-03-22T08:31:12.273Z,27.53
2023-03-22T08:33:40.993Z,30.27
2023-03-22T08:36:09.099Z,33.10
2023-03-22T08:38:36.609Z,32.90
2023-03-22T08:41:03.811Z,27.60
2023-03-22T08:43:31.000Z,29.13
2023-03-22T08:45:58.407Z,29.60
2023-03-22T08:48:28.990Z,30.30
2023-03-22T08:50:56.128Z,32.20
2023-03-22T08:53:23.342Z,33.10
2023-03-22T08:55:50.905Z,29.13
2023-03-22T08:58:20.008Z,30.53
2023-03-22T09:00:49.716Z,30.60
2023-03-22T09:03:17.560Z,26.33
2023-03-22T09:05:44.922Z,31.03
2023-03-22T09:08:18.574Z,26.03
2023-03-22T09:10:52.722Z,29.23
2023-03-22T09:13:20.350Z,28.90
2023-03-22T09:15:48.250Z,31.37
2023-03-22T09:18:16.198Z,28.87
2023-03-22T09:20:44.658Z,29.27
2023-03-22T09:23:11.996Z,29.43
2023-03-22T09:25:39.506Z,28.20
2023-03-22T09:28:06.923Z,26.90
2023-03-22T09:30:34.105Z,28.67
2023-03-22T09:33:01.468Z,29.43
2023-03-22T09:35:28.739Z,30.17
2023-03-22T09:37:56.178Z,25.60
2023-03-22T09:40:27.808Z,24.93
2023-03-22T09:42:56.617Z,25.07
2023-03-22T09:45:30.773Z,24.33
2023-03-22T09:47:58.956Z,26.03
2023-03-22T09:50:27.569Z,20.20
2023-03-22T09:52:54.846Z,22.17
2023-03-22T09:55:30.384Z,21.67
2023-03-22T09:58:08.216Z,22.33
2023-03-22T10:00:41.228Z,20.30
2023-03-22T10:03:22.486Z,21.00
2023-03-22T10:05:54.079Z,20.57
2023-03-22T10:08:31.547Z,23.60
2023-03-22T10:10:59.264Z,25.27
2023-03-22T10:13:26.430Z,24.13
2023-03-22T10:15:59.055Z,27.03
2023-03-22T10:18:27.597Z,27.33
2023-03-22T10:20:55.438Z,26.37
2023-03-22T10:23:28.730Z,23.27
2023-03-22T10:25:57.182Z,22.27
2023-03-22T10:28:35.897Z,25.30
2023-03-22T10:31:05.688Z,25.40
2023-03-22T10:33:56.385Z,25.13
2023-03-22T10:36:24.664Z,24.90
2023-03-22T10:38:56.930Z,24.27
2023-03-22T10:41:25.866Z,19.73
2023-03-22T10:43:55.610Z,24.37
2023-03-22T10:46:25.265Z,25.13
2023-03-22T10:48:53.894Z,22.97
2023-03-22T10:51:27.077Z,23.43
2023-03-22T10:53:55.456Z,24.93
2023-03-22T10:56:22.968Z,23.37
2023-03-22T10:58:50.921Z,24.00
2023-03-22T11:01:29.025Z,18.97
2023-03-22T11:03:58.274Z,25.00
2023-03-22T11:06:27.380Z,22.73
2023-03-22T11:08:57.471Z,24.90
2023-03-22T11:11:24.623Z,24.77
2023-03-22T11:13:53.905Z,22.13
2023-03-22T11:16:21.165Z,24.67
2023-03-22T11:18:48.451Z,23.97
2023-03-22T11:21:17.369Z,24.20
2023-03-22T11:23:49.238Z,23.47
2023-03-22T11:29:07.803Z,15.07
2023-03-22T11:31:56.111Z,19.60
2023-03-22T11:34:24.357Z,17.37
2023-03-22T11:36:57.144Z,16.67
2023-03-22T11:39:28.745Z,17.93
2023-03-22T11:42:01.529Z,18.20
2023-03-22T11:44:33.034Z,18.37
2023-03-22T11:47:01.451Z,17.27
2023-03-22T11:49:35.489Z,17.97
2023-03-22T11:52:08.489Z,16.47
2023-03-22T11:54:36.486Z,16.53
2023-03-22T11:57:05.796Z,17.40
2023-03-22T11:59:40.196Z,17.33
2023-03-22T12:02:15.596Z,16.43
2023-03-22T12:04:44.686Z,16.20
2023-03-22T12:07:15.525Z,17.57
2023-03-22T12:09:42.717Z,14.17
2023-03-22T12:12:22.988Z,14.33
2023-03-22T12:15:25.613Z,16.17
2023-03-22T12:18:00.198Z,15.93
2023-03-22T12:20:45.748Z,14.77
2023-03-22T12:23:15.493Z,14.33
2023-03-22T12:25:45.316Z,15.20
2023-03-22T12:28:16.778Z,16.00
2023-03-22T12:30:48.657Z,15.33
2023-03-22T12:33:30.874Z,17.87
2023-03-22T12:35:59.420Z,17.03
2023-03-22T12:38:29.703Z,14.03
2023-03-22T12:40:59.067Z,15.70
2023-03-22T12:43:39.981Z,15.93
2023-03-22T12:46:07.863Z,14.97
2023-03-22T12:48:46.696Z,16.47
2023-03-22T12:51:14.472Z,14.77
2023-03-22T12:53:55.578Z,14.80
2023-03-22T12:56:24.697Z,16.77
2023-03-22T12:58:53.258Z,15.37
2023-03-22T13:01:24.000Z,14.57
2023-03-22T13:03:53.600Z,14.43
2023-03-22T13:06:39.454Z,17.37
2023-03-22T13:09:25.427Z,16.00
2023-03-22T13:12:11.396Z,15.17
2023-03-22T13:14:51.267Z,17.03
2023-03-22T13:17:24.681Z,14.30
2023-03-22T13:20:06.295Z,14.23
2023-03-22T13:22:41.533Z,11.10
2023-03-22T13:25:09.849Z,13.93
2023-03-22T13:27:37.868Z,13.60
2023-03-22T13:30:15.227Z,14.37
2023-03-22T13:32:53.210Z,13.00
2023-03-22T13:35:23.569Z,12.00
2023-03-22T13:37:51.843Z,13.70
2023-03-22T13:40:32.631Z,13.17
2023-03-22T13:43:10.885Z,11.83
2023-03-22T13:45:44.883Z,11.10
2023-03-22T13:48:29.493Z,11.80
2023-03-22T13:50:58.412Z,11.70
2023-03-22T13:53:33.801Z,10.57
2023-03-22T13:56:04.687Z,11.33
2023-03-22T13:58:36.015Z,11.63
2023-03-22T14:01:08.987Z,12.47
2023-03-22T14:03:38.996Z,12.03
2023-03-22T14:06:15.856Z,12.50
2023-03-22T14:08:44.317Z,12.90
2023-03-22T14:11:20.240Z,11.43
2023-03-22T14:13:52.658Z,12.83
2023-03-22T14:16:32.196Z,10.43
2023-03-22T14:19:00.052Z,11.60
2023-03-22T14:21:36.002Z,10.73
